LJLJ/LJU METAR and TAF weather

Enter ICAO airport designator
Station Type Date Time Source
LJLJ METAR 2021/07/28 05:00 UTC NOAA

LJLJ 280500Z 00000KT 9999 FEW060 15/15 Q1016 NOSIG


Station Type Date Time Source
LJLJ Decoded METAR 2021/07/28 05:00 UTC NOAA

Ljubljana / Brnik, Slovenia (LJLJ) 46-13N 014-29E 362M
Jul 28, 2021 - 01:00 AM EDT / 2021.07.28 0500 UTC
Wind: Calm:0
Visibility: greater than 7 mile(s):0
Sky conditions: mostly clear
Temperature: 59 F (15 C)
Dew Point: 59 F (15 C)
Relative Humidity: 100%
Pressure (altimeter): 30.00 in. Hg (1016 hPa)
ob: LJLJ 280500Z 00000KT 9999 FEW060 15/15 Q1016 NOSIG
cycle: 5

Station Type Date Time Source
LJLJ TAF 2021/07/28 06:05 UTC NOAA

TAF LJLJ 280500Z 2806/2906 23003KT 9999 FEW045 PROB40
TEMPO 2816/2822 FEW045CB

Example: see airport list